sensor_id;sensor_type;location;lat;lon;timestamp;P1;durP1;ratioP1;P2;durP2;ratioP2
28958;SDS011;16066;0.000;0.000;2023-07-22T05:30:35;7.10;;;5.03;;
28958;SDS011;16066;0.000;0.000;2023-07-22T05:33:01;9.37;;;5.53;;
28958;SDS011;16066;0.000;0.000;2023-07-22T05:35:27;6.80;;;5.77;;
28958;SDS011;16066;0.000;0.000;2023-07-22T05:37:52;8.63;;;5.47;;
28958;SDS011;16066;0.000;0.000;2023-07-22T05:40:19;7.30;;;5.33;;
28958;SDS011;16066;0.000;0.000;2023-07-22T05:42:44;6.50;;;5.23;;
28958;SDS011;16066;0.000;0.000;2023-07-22T05:45:10;7.50;;;5.13;;
28958;SDS011;16066;0.000;0.000;2023-07-22T05:47:38;7.30;;;5.57;;
28958;SDS011;16066;0.000;0.000;2023-07-22T05:50:04;8.50;;;5.57;;
28958;SDS011;16066;0.000;0.000;2023-07-22T05:52:31;7.43;;;4.90;;
28958;SDS011;16066;0.000;0.000;2023-07-22T05:54:57;7.33;;;5.10;;
28958;SDS011;16066;0.000;0.000;2023-07-22T05:57:22;6.00;;;5.20;;
28958;SDS011;16066;0.000;0.000;2023-07-22T05:59:48;6.87;;;5.77;;
28958;SDS011;16066;0.000;0.000;2023-07-22T06:02:13;10.03;;;6.00;;
28958;SDS011;16066;0.000;0.000;2023-07-22T06:04:39;8.73;;;5.60;;
28958;SDS011;16066;0.000;0.000;2023-07-22T06:07:04;9.37;;;5.57;;
28958;SDS011;16066;0.000;0.000;2023-07-22T06:09:30;8.37;;;6.30;;
28958;SDS011;16066;0.000;0.000;2023-07-22T06:11:55;7.93;;;4.80;;
28958;SDS011;16066;0.000;0.000;2023-07-22T06:14:21;9.20;;;5.37;;
28958;SDS011;16066;0.000;0.000;2023-07-22T06:16:46;6.33;;;4.93;;
28958;SDS011;16066;0.000;0.000;2023-07-22T06:19:12;6.07;;;5.37;;
28958;SDS011;16066;0.000;0.000;2023-07-22T06:21:38;7.60;;;5.80;;
28958;SDS011;16066;0.000;0.000;2023-07-22T06:24:03;5.97;;;4.90;;
28958;SDS011;16066;0.000;0.000;2023-07-22T06:26:29;6.60;;;4.90;;
28958;SDS011;16066;0.000;0.000;2023-07-22T06:28:55;7.97;;;5.23;;
28958;SDS011;16066;0.000;0.000;2023-07-22T06:31:20;9.80;;;5.73;;
28958;SDS011;16066;0.000;0.000;2023-07-22T06:33:46;7.30;;;5.47;;
28958;SDS011;16066;0.000;0.000;2023-07-22T06:36:12;7.33;;;5.50;;
28958;SDS011;16066;0.000;0.000;2023-07-22T06:38:37;6.90;;;5.57;;
28958;SDS011;16066;0.000;0.000;2023-07-22T06:41:03;8.53;;;5.00;;
28958;SDS011;16066;0.000;0.000;2023-07-22T06:43:28;8.20;;;6.00;;
28958;SDS011;16066;0.000;0.000;2023-07-22T06:45:54;7.47;;;5.10;;
28958;SDS011;16066;0.000;0.000;2023-07-22T06:48:20;8.33;;;5.87;;
28958;SDS011;16066;0.000;0.000;2023-07-22T06:50:48;8.27;;;5.50;;
28958;SDS011;16066;0.000;0.000;2023-07-22T06:53:14;7.90;;;5.13;;
28958;SDS011;16066;0.000;0.000;2023-07-22T06:55:40;8.57;;;5.77;;
28958;SDS011;16066;0.000;0.000;2023-07-22T06:58:13;8.07;;;4.57;;
28958;SDS011;16066;0.000;0.000;2023-07-22T07:00:38;5.83;;;4.57;;
28958;SDS011;16066;0.000;0.000;2023-07-22T07:03:04;7.00;;;4.90;;
28958;SDS011;16066;0.000;0.000;2023-07-22T07:05:29;6.40;;;4.87;;
28958;SDS011;16066;0.000;0.000;2023-07-22T07:07:55;7.87;;;5.33;;
28958;SDS011;16066;0.000;0.000;2023-07-22T07:10:20;6.47;;;5.20;;
28958;SDS011;16066;0.000;0.000;2023-07-22T07:12:46;6.00;;;4.67;;
28958;SDS011;16066;0.000;0.000;2023-07-22T07:15:11;10.63;;;5.67;;
28958;SDS011;16066;0.000;0.000;2023-07-22T07:17:37;6.07;;;5.47;;
28958;SDS011;16066;0.000;0.000;2023-07-22T07:20:02;6.10;;;4.70;;
28958;SDS011;16066;0.000;0.000;2023-07-22T07:22:28;14.20;;;5.60;;
28958;SDS011;16066;0.000;0.000;2023-07-22T07:24:53;6.93;;;5.13;;
28958;SDS011;16066;0.000;0.000;2023-07-22T07:27:19;7.30;;;5.00;;
28958;SDS011;16066;0.000;0.000;2023-07-22T07:29:45;8.10;;;4.90;;
28958;SDS011;16066;0.000;0.000;2023-07-22T07:32:10;5.83;;;4.50;;
28958;SDS011;16066;0.000;0.000;2023-07-22T07:34:36;9.93;;;4.60;;
28958;SDS011;16066;0.000;0.000;2023-07-22T07:37:01;10.63;;;5.70;;
28958;SDS011;16066;0.000;0.000;2023-07-22T07:39:27;10.33;;;5.20;;
28958;SDS011;16066;0.000;0.000;2023-07-22T07:41:54;7.13;;;5.23;;
28958;SDS011;16066;0.000;0.000;2023-07-22T07:44:19;9.73;;;5.27;;
28958;SDS011;16066;0.000;0.000;2023-07-22T07:46:45;7.77;;;5.00;;
28958;SDS011;16066;0.000;0.000;2023-07-22T07:49:10;9.53;;;4.30;;
28958;SDS011;16066;0.000;0.000;2023-07-22T07:51:36;6.10;;;4.83;;
28958;SDS011;16066;0.000;0.000;2023-07-22T07:54:02;5.20;;;4.10;;
28958;SDS011;16066;0.000;0.000;2023-07-22T07:56:29;8.20;;;4.30;;
28958;SDS011;16066;0.000;0.000;2023-07-22T07:58:54;8.57;;;4.70;;
28958;SDS011;16066;0.000;0.000;2023-07-22T08:01:20;6.53;;;4.77;;
28958;SDS011;16066;0.000;0.000;2023-07-22T08:03:46;7.03;;;5.20;;
28958;SDS011;16066;0.000;0.000;2023-07-22T08:06:12;10.67;;;4.93;;
28958;SDS011;16066;0.000;0.000;2023-07-22T08:08:38;6.33;;;5.20;;
28958;SDS011;16066;0.000;0.000;2023-07-22T08:11:07;9.07;;;5.90;;
28958;SDS011;16066;0.000;0.000;2023-07-22T08:13:35;6.07;;;5.10;;
28958;SDS011;16066;0.000;0.000;2023-07-22T08:16:04;8.57;;;6.17;;
28958;SDS011;16066;0.000;0.000;2023-07-22T08:18:32;8.67;;;6.33;;
28958;SDS011;16066;0.000;0.000;2023-07-22T08:20:59;9.93;;;5.50;;
28958;SDS011;16066;0.000;0.000;2023-07-22T08:23:25;7.70;;;5.20;;
28958;SDS011;16066;0.000;0.000;2023-07-22T08:25:51;6.73;;;5.50;;
28958;SDS011;16066;0.000;0.000;2023-07-22T08:28:17;8.27;;;5.47;;
28958;SDS011;16066;0.000;0.000;2023-07-22T08:30:43;8.80;;;6.17;;
28958;SDS011;16066;0.000;0.000;2023-07-22T08:33:09;10.03;;;6.30;;
28958;SDS011;16066;0.000;0.000;2023-07-22T08:35:36;8.50;;;6.03;;
28958;SDS011;16066;0.000;0.000;2023-07-22T08:38:03;6.20;;;5.43;;
28958;SDS011;16066;0.000;0.000;2023-07-22T08:43:05;7.60;;;5.40;;
28958;SDS011;16066;0.000;0.000;2023-07-22T08:45:34;11.00;;;6.40;;
28958;SDS011;16066;0.000;0.000;2023-07-22T08:48:05;6.77;;;5.63;;
28958;SDS011;16066;0.000;0.000;2023-07-22T08:50:44;8.30;;;5.80;;
28958;SDS011;16066;0.000;0.000;2023-07-22T08:53:11;10.10;;;5.80;;
28958;SDS011;16066;0.000;0.000;2023-07-22T08:55:37;8.00;;;5.93;;
28958;SDS011;16066;0.000;0.000;2023-07-22T08:58:05;6.47;;;5.43;;
28958;SDS011;16066;0.000;0.000;2023-07-22T09:00:34;11.43;;;6.40;;
28958;SDS011;16066;0.000;0.000;2023-07-22T09:03:00;7.73;;;5.77;;
28958;SDS011;16066;0.000;0.000;2023-07-22T09:05:26;8.20;;;5.90;;
28958;SDS011;16066;0.000;0.000;2023-07-22T09:07:52;7.67;;;4.93;;
28958;SDS011;16066;0.000;0.000;2023-07-22T09:10:18;5.90;;;5.30;;
28958;SDS011;16066;0.000;0.000;2023-07-22T09:12:45;9.80;;;6.20;;
28958;SDS011;16066;0.000;0.000;2023-07-22T09:15:12;10.27;;;6.47;;
28958;SDS011;16066;0.000;0.000;2023-07-22T09:17:38;6.40;;;5.40;;
28958;SDS011;16066;0.000;0.000;2023-07-22T09:20:04;11.13;;;6.13;;
28958;SDS011;16066;0.000;0.000;2023-07-22T09:22:31;7.50;;;5.43;;
28958;SDS011;16066;0.000;0.000;2023-07-22T09:27:40;7.50;;;6.20;;
28958;SDS011;16066;0.000;0.000;2023-07-22T09:30:19;11.50;;;5.80;;
28958;SDS011;16066;0.000;0.000;2023-07-22T09:32:50;7.20;;;5.50;;
28958;SDS011;16066;0.000;0.000;2023-07-22T09:35:17;7.40;;;5.67;;
28958;SDS011;16066;0.000;0.000;2023-07-22T09:37:43;7.67;;;5.60;;
28958;SDS011;16066;0.000;0.000;2023-07-22T09:40:20;7.83;;;5.70;;
28958;SDS011;16066;0.000;0.000;2023-07-22T09:42:48;5.40;;;4.90;;
28958;SDS011;16066;0.000;0.000;2023-07-22T09:45:28;5.87;;;5.23;;
28958;SDS011;16066;0.000;0.000;2023-07-22T09:47:55;6.37;;;4.80;;
28958;SDS011;16066;0.000;0.000;2023-07-22T09:50:22;6.50;;;4.90;;
28958;SDS011;16066;0.000;0.000;2023-07-22T09:55:19;7.20;;;4.80;;
28958;SDS011;16066;0.000;0.000;2023-07-22T09:57:54;5.67;;;4.27;;
28958;SDS011;16066;0.000;0.000;2023-07-22T10:00:20;7.03;;;4.67;;
28958;SDS011;16066;0.000;0.000;2023-07-22T10:02:48;4.73;;;4.23;;
28958;SDS011;16066;0.000;0.000;2023-07-22T10:05:15;5.83;;;4.77;;
28958;SDS011;16066;0.000;0.000;2023-07-22T10:07:52;6.30;;;4.50;;
28958;SDS011;16066;0.000;0.000;2023-07-22T10:10:20;4.70;;;3.80;;
28958;SDS011;16066;0.000;0.000;2023-07-22T10:12:51;6.77;;;4.30;;
28958;SDS011;16066;0.000;0.000;2023-07-22T10:15:18;6.33;;;4.63;;
28958;SDS011;16066;0.000;0.000;2023-07-22T10:17:44;5.03;;;4.10;;
28958;SDS011;16066;0.000;0.000;2023-07-22T10:20:11;7.70;;;4.60;;
28958;SDS011;16066;0.000;0.000;2023-07-22T10:22:44;4.57;;;3.83;;
28958;SDS011;16066;0.000;0.000;2023-07-22T10:25:20;5.90;;;4.70;;
28958;SDS011;16066;0.000;0.000;2023-07-22T10:27:49;7.57;;;4.63;;
28958;SDS011;16066;0.000;0.000;2023-07-22T10:30:16;5.87;;;4.30;;
28958;SDS011;16066;0.000;0.000;2023-07-22T10:32:46;5.70;;;3.83;;
28958;SDS011;16066;0.000;0.000;2023-07-22T10:35:16;5.40;;;4.27;;
28958;SDS011;16066;0.000;0.000;2023-07-22T10:37:55;5.53;;;3.77;;
28958;SDS011;16066;0.000;0.000;2023-07-22T10:42:53;6.23;;;3.90;;
28958;SDS011;16066;0.000;0.000;2023-07-22T10:45:39;4.17;;;3.40;;
28958;SDS011;16066;0.000;0.000;2023-07-22T10:48:06;5.83;;;3.37;;
28958;SDS011;16066;0.000;0.000;2023-07-22T10:50:40;5.13;;;4.03;;
28958;SDS011;16066;0.000;0.000;2023-07-22T10:53:13;5.40;;;3.93;;
28958;SDS011;16066;0.000;0.000;2023-07-22T11:06:29;3.73;;;3.30;;
28958;SDS011;16066;0.000;0.000;2023-07-22T11:08:55;3.53;;;2.73;;
28958;SDS011;16066;0.000;0.000;2023-07-22T11:11:20;3.50;;;3.20;;
28958;SDS011;16066;0.000;0.000;2023-07-22T11:13:46;3.57;;;3.27;;
28958;SDS011;16066;0.000;0.000;2023-07-22T11:16:12;4.30;;;3.00;;
28958;SDS011;16066;0.000;0.000;2023-07-22T11:18:41;3.40;;;2.50;;
28958;SDS011;16066;0.000;0.000;2023-07-22T11:21:07;3.23;;;2.63;;
28958;SDS011;16066;0.000;0.000;2023-07-22T11:23:36;4.40;;;2.80;;
28958;SDS011;16066;0.000;0.000;2023-07-22T11:26:05;4.17;;;2.90;;
28958;SDS011;16066;0.000;0.000;2023-07-22T11:28:31;11.07;;;3.33;;
28958;SDS011;16066;0.000;0.000;2023-07-22T11:30:57;6.53;;;2.60;;
28958;SDS011;16066;0.000;0.000;2023-07-22T11:33:24;5.50;;;3.00;;
28958;SDS011;16066;0.000;0.000;2023-07-22T11:35:49;4.83;;;3.20;;
28958;SDS011;16066;0.000;0.000;2023-07-22T11:38:15;5.17;;;2.70;;
28958;SDS011;16066;0.000;0.000;2023-07-22T11:40:40;5.40;;;3.33;;
28958;SDS011;16066;0.000;0.000;2023-07-22T11:43:06;4.53;;;2.80;;
28958;SDS011;16066;0.000;0.000;2023-07-22T11:45:32;5.37;;;3.00;;
28958;SDS011;16066;0.000;0.000;2023-07-22T11:47:58;3.83;;;2.53;;
28958;SDS011;16066;0.000;0.000;2023-07-22T11:50:31;4.23;;;2.60;;
28958;SDS011;16066;0.000;0.000;2023-07-22T11:52:57;2.67;;;2.47;;
28958;SDS011;16066;0.000;0.000;2023-07-22T11:55:23;4.13;;;2.80;;
28958;SDS011;16066;0.000;0.000;2023-07-22T11:57:52;3.30;;;2.90;;
28958;SDS011;16066;0.000;0.000;2023-07-22T12:00:18;3.40;;;2.83;;
28958;SDS011;16066;0.000;0.000;2023-07-22T12:02:44;3.47;;;3.17;;
28958;SDS011;16066;0.000;0.000;2023-07-22T12:05:10;3.63;;;2.77;;
28958;SDS011;16066;0.000;0.000;2023-07-22T12:07:36;5.93;;;2.87;;
28958;SDS011;16066;0.000;0.000;2023-07-22T12:10:03;2.87;;;2.53;;
28958;SDS011;16066;0.000;0.000;2023-07-22T12:12:36;3.13;;;2.60;;
28958;SDS011;16066;0.000;0.000;2023-07-22T12:17:47;3.67;;;2.93;;
28958;SDS011;16066;0.000;0.000;2023-07-22T12:20:17;2.93;;;2.50;;
28958;SDS011;16066;0.000;0.000;2023-07-22T12:22:43;3.23;;;2.93;;
28958;SDS011;16066;0.000;0.000;2023-07-22T12:25:09;3.90;;;3.50;;
28958;SDS011;16066;0.000;0.000;2023-07-22T12:27:35;5.33;;;2.70;;
28958;SDS011;16066;0.000;0.000;2023-07-22T12:30:01;4.57;;;2.80;;
28958;SDS011;16066;0.000;0.000;2023-07-22T12:32:28;4.23;;;3.03;;
28958;SDS011;16066;0.000;0.000;2023-07-22T12:34:53;3.60;;;2.70;;
28958;SDS011;16066;0.000;0.000;2023-07-22T12:37:19;5.10;;;2.90;;
28958;SDS011;16066;0.000;0.000;2023-07-22T12:39:44;2.53;;;2.33;;
28958;SDS011;16066;0.000;0.000;2023-07-22T12:42:10;3.30;;;2.70;;
28958;SDS011;16066;0.000;0.000;2023-07-22T12:44:35;4.17;;;3.07;;
28958;SDS011;16066;0.000;0.000;2023-07-22T12:47:01;3.50;;;2.70;;
28958;SDS011;16066;0.000;0.000;2023-07-22T12:49:27;5.30;;;2.80;;
28958;SDS011;16066;0.000;0.000;2023-07-22T12:51:52;3.97;;;3.10;;
28958;SDS011;16066;0.000;0.000;2023-07-22T12:54:18;3.73;;;2.60;;
28958;SDS011;16066;0.000;0.000;2023-07-22T12:56:43;3.90;;;3.10;;
28958;SDS011;16066;0.000;0.000;2023-07-22T12:59:09;4.33;;;3.13;;
28958;SDS011;16066;0.000;0.000;2023-07-22T13:01:35;5.37;;;2.53;;
28958;SDS011;16066;0.000;0.000;2023-07-22T13:04:03;3.63;;;2.50;;
28958;SDS011;16066;0.000;0.000;2023-07-22T13:06:29;2.70;;;2.50;;
28958;SDS011;16066;0.000;0.000;2023-07-22T13:08:54;5.13;;;2.90;;
28958;SDS011;16066;0.000;0.000;2023-07-22T13:11:20;5.03;;;2.40;;
28958;SDS011;16066;0.000;0.000;2023-07-22T13:13:45;6.60;;;4.00;;
28958;SDS011;16066;0.000;0.000;2023-07-22T13:16:11;6.63;;;3.30;;
28958;SDS011;16066;0.000;0.000;2023-07-22T13:18:36;7.07;;;2.80;;
28958;SDS011;16066;0.000;0.000;2023-07-22T13:21:02;9.13;;;3.33;;
28958;SDS011;16066;0.000;0.000;2023-07-22T13:23:28;3.77;;;3.20;;
28958;SDS011;16066;0.000;0.000;2023-07-22T13:25:53;5.03;;;2.50;;
28958;SDS011;16066;0.000;0.000;2023-07-22T13:28:19;3.10;;;2.40;;
28958;SDS011;16066;0.000;0.000;2023-07-22T13:30:44;3.37;;;2.97;;
28958;SDS011;16066;0.000;0.000;2023-07-22T13:33:10;3.70;;;2.90;;
28958;SDS011;16066;0.000;0.000;2023-07-22T13:35:35;5.87;;;2.80;;
28958;SDS011;16066;0.000;0.000;2023-07-22T13:38:01;3.60;;;2.77;;
28958;SDS011;16066;0.000;0.000;2023-07-22T13:40:26;2.87;;;2.43;;
28958;SDS011;16066;0.000;0.000;2023-07-22T13:42:52;3.70;;;2.93;;
28958;SDS011;16066;0.000;0.000;2023-07-22T13:45:17;3.50;;;2.63;;
28958;SDS011;16066;0.000;0.000;2023-07-22T13:47:43;5.50;;;2.70;;
28958;SDS011;16066;0.000;0.000;2023-07-22T13:50:08;3.73;;;2.97;;
28958;SDS011;16066;0.000;0.000;2023-07-22T13:52:34;6.60;;;3.23;;
28958;SDS011;16066;0.000;0.000;2023-07-22T13:55:00;2.77;;;2.50;;
28958;SDS011;16066;0.000;0.000;2023-07-22T13:57:25;4.40;;;2.50;;
28958;SDS011;16066;0.000;0.000;2023-07-22T13:59:51;4.70;;;2.80;;
28958;SDS011;16066;0.000;0.000;2023-07-22T14:02:17;3.20;;;2.27;;
28958;SDS011;16066;0.000;0.000;2023-07-22T14:04:43;5.53;;;2.70;;
28958;SDS011;16066;0.000;0.000;2023-07-22T14:07:08;4.23;;;2.80;;
28958;SDS011;16066;0.000;0.000;2023-07-22T14:09:34;3.77;;;2.63;;
28958;SDS011;16066;0.000;0.000;2023-07-22T14:11:59;2.40;;;2.07;;
28958;SDS011;16066;0.000;0.000;2023-07-22T14:14:25;3.33;;;2.50;;
28958;SDS011;16066;0.000;0.000;2023-07-22T14:16:53;4.93;;;2.80;;
28958;SDS011;16066;0.000;0.000;2023-07-22T14:19:20;3.47;;;2.90;;
28958;SDS011;16066;0.000;0.000;2023-07-22T14:21:46;5.40;;;3.10;;
28958;SDS011;16066;0.000;0.000;2023-07-22T14:24:11;3.00;;;2.70;;
28958;SDS011;16066;0.000;0.000;2023-07-22T14:26:37;3.23;;;2.20;;
28958;SDS011;16066;0.000;0.000;2023-07-22T14:29:02;4.40;;;3.13;;
28958;SDS011;16066;0.000;0.000;2023-07-22T14:31:28;7.27;;;3.57;;
28958;SDS011;16066;0.000;0.000;2023-07-22T14:33:53;4.13;;;2.60;;
28958;SDS011;16066;0.000;0.000;2023-07-22T14:36:19;7.00;;;3.07;;
28958;SDS011;16066;0.000;0.000;2023-07-22T14:38:44;4.03;;;2.80;;
28958;SDS011;16066;0.000;0.000;2023-07-22T14:41:11;3.00;;;2.50;;
28958;SDS011;16066;0.000;0.000;2023-07-22T14:43:36;3.23;;;2.50;;
28958;SDS011;16066;0.000;0.000;2023-07-22T14:46:02;5.17;;;3.27;;
28958;SDS011;16066;0.000;0.000;2023-07-22T14:48:27;9.40;;;2.83;;
28958;SDS011;16066;0.000;0.000;2023-07-22T14:50:53;7.00;;;3.10;;
28958;SDS011;16066;0.000;0.000;2023-07-22T14:53:18;3.10;;;2.67;;
28958;SDS011;16066;0.000;0.000;2023-07-22T14:55:44;5.50;;;3.13;;
28958;SDS011;16066;0.000;0.000;2023-07-22T14:58:09;3.80;;;2.70;;
28958;SDS011;16066;0.000;0.000;2023-07-22T15:00:35;5.80;;;3.00;;
28958;SDS011;16066;0.000;0.000;2023-07-22T15:03:00;4.90;;;2.90;;
28958;SDS011;16066;0.000;0.000;2023-07-22T15:05:26;5.30;;;3.27;;
28958;SDS011;16066;0.000;0.000;2023-07-22T15:07:52;4.07;;;3.20;;
28958;SDS011;16066;0.000;0.000;2023-07-22T15:10:17;6.33;;;3.30;;
28958;SDS011;16066;0.000;0.000;2023-07-22T15:12:43;4.23;;;3.23;;
28958;SDS011;16066;0.000;0.000;2023-07-22T15:15:11;4.50;;;3.53;;
28958;SDS011;16066;0.000;0.000;2023-07-22T15:17:37;3.77;;;2.90;;
28958;SDS011;16066;0.000;0.000;2023-07-22T15:20:02;4.57;;;2.83;;
28958;SDS011;16066;0.000;0.000;2023-07-22T15:22:28;3.70;;;2.70;;
28958;SDS011;16066;0.000;0.000;2023-07-22T15:24:54;4.30;;;2.80;;
28958;SDS011;16066;0.000;0.000;2023-07-22T15:27:19;3.73;;;3.33;;
28958;SDS011;16066;0.000;0.000;2023-07-22T15:29:45;4.00;;;3.00;;
28958;SDS011;16066;0.000;0.000;2023-07-22T15:32:11;5.07;;;3.40;;
28958;SDS011;16066;0.000;0.000;2023-07-22T15:34:37;4.27;;;3.20;;
28958;SDS011;16066;0.000;0.000;2023-07-22T15:37:03;5.87;;;3.40;;
28958;SDS011;16066;0.000;0.000;2023-07-22T15:39:28;3.93;;;3.30;;
28958;SDS011;16066;0.000;0.000;2023-07-22T15:41:54;4.60;;;3.03;;
28958;SDS011;16066;0.000;0.000;2023-07-22T15:44:19;4.10;;;3.50;;
28958;SDS011;16066;0.000;0.000;2023-07-22T15:46:47;10.30;;;2.97;;
28958;SDS011;16066;0.000;0.000;2023-07-22T15:49:12;4.73;;;3.67;;
28958;SDS011;16066;0.000;0.000;2023-07-22T15:51:38;7.07;;;3.50;;
28958;SDS011;16066;0.000;0.000;2023-07-22T15:54:03;4.70;;;3.40;;
28958;SDS011;16066;0.000;0.000;2023-07-22T15:56:29;4.73;;;3.47;;
28958;SDS011;16066;0.000;0.000;2023-07-22T15:58:55;6.13;;;3.50;;
28958;SDS011;16066;0.000;0.000;2023-07-22T16:01:20;4.30;;;3.00;;
28958;SDS011;16066;0.000;0.000;2023-07-22T16:03:46;4.40;;;3.20;;
28958;SDS011;16066;0.000;0.000;2023-07-22T16:06:11;5.80;;;3.37;;
28958;SDS011;16066;0.000;0.000;2023-07-22T16:08:37;6.70;;;3.03;;
28958;SDS011;16066;0.000;0.000;2023-07-22T16:11:02;5.57;;;3.07;;
28958;SDS011;16066;0.000;0.000;2023-07-22T16:13:28;4.07;;;2.90;;
28958;SDS011;16066;0.000;0.000;2023-07-22T16:15:53;4.50;;;2.97;;
28958;SDS011;16066;0.000;0.000;2023-07-22T16:18:19;5.13;;;3.10;;
28958;SDS011;16066;0.000;0.000;2023-07-22T16:20:44;2.77;;;2.47;;
28958;SDS011;16066;0.000;0.000;2023-07-22T16:23:10;7.13;;;3.17;;
28958;SDS011;16066;0.000;0.000;2023-07-22T16:25:35;5.17;;;2.93;;
28958;SDS011;16066;0.000;0.000;2023-07-22T16:28:01;3.23;;;2.80;;
28958;SDS011;16066;0.000;0.000;2023-07-22T16:30:27;4.40;;;3.13;;
28958;SDS011;16066;0.000;0.000;2023-07-22T16:32:52;3.70;;;2.77;;
28958;SDS011;16066;0.000;0.000;2023-07-22T16:35:18;4.50;;;2.80;;
28958;SDS011;16066;0.000;0.000;2023-07-22T16:37:43;3.80;;;2.70;;
28958;SDS011;16066;0.000;0.000;2023-07-22T16:40:09;3.77;;;2.50;;
28958;SDS011;16066;0.000;0.000;2023-07-22T16:42:36;3.83;;;2.30;;
28958;SDS011;16066;0.000;0.000;2023-07-22T16:45:05;4.30;;;2.80;;
28958;SDS011;16066;0.000;0.000;2023-07-22T16:47:32;3.87;;;2.57;;
28958;SDS011;16066;0.000;0.000;2023-07-22T16:49:58;5.63;;;3.20;;
28958;SDS011;16066;0.000;0.000;2023-07-22T16:52:23;7.00;;;2.63;;
28958;SDS011;16066;0.000;0.000;2023-07-22T16:54:49;3.03;;;2.23;;
28958;SDS011;16066;0.000;0.000;2023-07-22T16:57:15;3.77;;;2.60;;
28958;SDS011;16066;0.000;0.000;2023-07-22T16:59:41;5.87;;;2.53;;
28958;SDS011;16066;0.000;0.000;2023-07-22T17:02:06;3.20;;;2.63;;
28958;SDS011;16066;0.000;0.000;2023-07-22T17:04:32;3.27;;;2.50;;
28958;SDS011;16066;0.000;0.000;2023-07-22T17:06:57;5.63;;;2.90;;
28958;SDS011;16066;0.000;0.000;2023-07-22T17:09:23;6.63;;;3.47;;
28958;SDS011;16066;0.000;0.000;2023-07-22T17:11:48;4.23;;;2.53;;
28958;SDS011;16066;0.000;0.000;2023-07-22T17:14:14;8.23;;;3.27;;
28958;SDS011;16066;0.000;0.000;2023-07-22T17:16:39;3.87;;;2.87;;
28958;SDS011;16066;0.000;0.000;2023-07-22T17:19:05;5.47;;;3.00;;
28958;SDS011;16066;0.000;0.000;2023-07-22T17:21:30;5.97;;;3.43;;
28958;SDS011;16066;0.000;0.000;2023-07-22T17:23:56;7.80;;;3.60;;
28958;SDS011;16066;0.000;0.000;2023-07-22T17:26:21;4.70;;;3.10;;
28958;SDS011;16066;0.000;0.000;2023-07-22T17:28:47;6.77;;;3.90;;
28958;SDS011;16066;0.000;0.000;2023-07-22T17:31:12;5.40;;;3.40;;
28958;SDS011;16066;0.000;0.000;2023-07-22T17:33:38;5.23;;;3.43;;
28958;SDS011;16066;0.000;0.000;2023-07-22T17:36:04;5.50;;;3.70;;
28958;SDS011;16066;0.000;0.000;2023-07-22T17:38:29;4.13;;;3.23;;
28958;SDS011;16066;0.000;0.000;2023-07-22T17:40:55;4.87;;;3.90;;
28958;SDS011;16066;0.000;0.000;2023-07-22T17:43:20;6.47;;;3.63;;
28958;SDS011;16066;0.000;0.000;2023-07-22T17:45:46;5.97;;;3.70;;
28958;SDS011;16066;0.000;0.000;2023-07-22T17:48:11;7.73;;;4.30;;
28958;SDS011;16066;0.000;0.000;2023-07-22T17:50:37;8.77;;;4.57;;
28958;SDS011;16066;0.000;0.000;2023-07-22T17:53:03;8.30;;;3.93;;
28958;SDS011;16066;0.000;0.000;2023-07-22T17:55:29;7.30;;;4.57;;
28958;SDS011;16066;0.000;0.000;2023-07-22T17:57:55;10.20;;;3.73;;
28958;SDS011;16066;0.000;0.000;2023-07-22T18:00:20;6.23;;;4.07;;
28958;SDS011;16066;0.000;0.000;2023-07-22T18:02:46;4.83;;;3.53;;
28958;SDS011;16066;0.000;0.000;2023-07-22T18:05:11;8.03;;;4.60;;
28958;SDS011;16066;0.000;0.000;2023-07-22T18:07:37;4.83;;;3.70;;
28958;SDS011;16066;0.000;0.000;2023-07-22T18:10:03;7.30;;;4.20;;
28958;SDS011;16066;0.000;0.000;2023-07-22T18:12:29;5.93;;;3.73;;
28958;SDS011;16066;0.000;0.000;2023-07-22T18:14:55;9.53;;;3.73;;
28958;SDS011;16066;0.000;0.000;2023-07-22T18:17:21;4.23;;;3.23;;
28958;SDS011;16066;0.000;0.000;2023-07-22T18:19:47;6.03;;;3.50;;
28958;SDS011;16066;0.000;0.000;2023-07-22T18:22:13;4.83;;;3.40;;
28958;SDS011;16066;0.000;0.000;2023-07-22T18:24:39;4.20;;;3.23;;
28958;SDS011;16066;0.000;0.000;2023-07-22T18:27:04;8.53;;;3.80;;
28958;SDS011;16066;0.000;0.000;2023-07-22T18:29:30;6.20;;;3.37;;
28958;SDS011;16066;0.000;0.000;2023-07-22T18:31:55;5.00;;;3.43;;
28958;SDS011;16066;0.000;0.000;2023-07-22T18:34:21;9.57;;;4.37;;
28958;SDS011;16066;0.000;0.000;2023-07-22T18:36:50;4.70;;;3.07;;
28958;SDS011;16066;0.000;0.000;2023-07-22T18:39:16;4.50;;;3.07;;
28958;SDS011;16066;0.000;0.000;2023-07-22T18:41:42;4.00;;;3.17;;
28958;SDS011;16066;0.000;0.000;2023-07-22T18:44:08;4.30;;;2.90;;
28958;SDS011;16066;0.000;0.000;2023-07-22T18:46:34;3.33;;;3.03;;
28958;SDS011;16066;0.000;0.000;2023-07-22T18:49:00;6.60;;;3.10;;
28958;SDS011;16066;0.000;0.000;2023-07-22T18:51:26;5.00;;;3.33;;
28958;SDS011;16066;0.000;0.000;2023-07-22T18:54:00;4.20;;;3.00;;
28958;SDS011;16066;0.000;0.000;2023-07-22T18:56:26;3.80;;;3.20;;
28958;SDS011;16066;0.000;0.000;2023-07-22T18:58:52;7.93;;;3.10;;
28958;SDS011;16066;0.000;0.000;2023-07-22T19:01:19;5.20;;;3.20;;
28958;SDS011;16066;0.000;0.000;2023-07-22T19:03:45;6.37;;;3.20;;
28958;SDS011;16066;0.000;0.000;2023-07-22T19:06:10;4.97;;;2.93;;
28958;SDS011;16066;0.000;0.000;2023-07-22T19:08:36;6.80;;;2.93;;
28958;SDS011;16066;0.000;0.000;2023-07-22T19:11:01;5.23;;;2.60;;
28958;SDS011;16066;0.000;0.000;2023-07-22T19:13:30;7.07;;;3.30;;
28958;SDS011;16066;0.000;0.000;2023-07-22T19:15:56;5.33;;;2.90;;
28958;SDS011;16066;0.000;0.000;2023-07-22T19:18:22;4.10;;;3.00;;
28958;SDS011;16066;0.000;0.000;2023-07-22T19:20:55;27.97;;;3.30;;
28958;SDS011;16066;0.000;0.000;2023-07-22T19:23:25;6.93;;;2.63;;
28958;SDS011;16066;0.000;0.000;2023-07-22T19:25:55;5.70;;;3.53;;
28958;SDS011;16066;0.000;0.000;2023-07-22T19:28:21;8.43;;;3.10;;
28958;SDS011;16066;0.000;0.000;2023-07-22T19:30:54;4.33;;;3.10;;
28958;SDS011;16066;0.000;0.000;2023-07-22T19:33:21;3.87;;;2.67;;
28958;SDS011;16066;0.000;0.000;2023-07-22T19:35:58;4.17;;;3.03;;
28958;SDS011;16066;0.000;0.000;2023-07-22T19:38:28;3.63;;;2.63;;
28958;SDS011;16066;0.000;0.000;2023-07-22T19:41:04;6.50;;;2.87;;
28958;SDS011;16066;0.000;0.000;2023-07-22T19:43:31;6.23;;;2.73;;
28958;SDS011;16066;0.000;0.000;2023-07-22T19:46:03;7.30;;;3.73;;
28958;SDS011;16066;0.000;0.000;2023-07-22T19:48:30;4.50;;;2.80;;
28958;SDS011;16066;0.000;0.000;2023-07-22T19:51:00;9.83;;;6.37;;
28958;SDS011;16066;0.000;0.000;2023-07-22T19:53:26;6.63;;;3.70;;
28958;SDS011;16066;0.000;0.000;2023-07-22T19:55:51;7.43;;;3.93;;
28958;SDS011;16066;0.000;0.000;2023-07-22T19:58:18;5.43;;;3.70;;
28958;SDS011;16066;0.000;0.000;2023-07-22T20:00:46;5.57;;;3.97;;
28958;SDS011;16066;0.000;0.000;2023-07-22T20:03:12;6.07;;;3.80;;
28958;SDS011;16066;0.000;0.000;2023-07-22T20:05:39;4.83;;;3.53;;
28958;SDS011;16066;0.000;0.000;2023-07-22T20:08:06;7.70;;;3.40;;
28958;SDS011;16066;0.000;0.000;2023-07-22T20:10:32;6.67;;;3.23;;
28958;SDS011;16066;0.000;0.000;2023-07-22T20:12:57;9.90;;;3.60;;
28958;SDS011;16066;0.000;0.000;2023-07-22T20:15:23;4.50;;;3.00;;
28958;SDS011;16066;0.000;0.000;2023-07-22T20:17:50;7.93;;;3.20;;
28958;SDS011;16066;0.000;0.000;2023-07-22T20:20:19;5.60;;;3.30;;
28958;SDS011;16066;0.000;0.000;2023-07-22T20:22:45;8.63;;;3.60;;
28958;SDS011;16066;0.000;0.000;2023-07-22T20:25:10;6.47;;;4.43;;
28958;SDS011;16066;0.000;0.000;2023-07-22T20:27:36;4.80;;;3.17;;
28958;SDS011;16066;0.000;0.000;2023-07-22T20:30:02;5.40;;;3.70;;
28958;SDS011;16066;0.000;0.000;2023-07-22T20:32:28;3.80;;;3.10;;
28958;SDS011;16066;0.000;0.000;2023-07-22T20:34:53;6.17;;;3.30;;
28958;SDS011;16066;0.000;0.000;2023-07-22T20:37:19;9.13;;;3.47;;
28958;SDS011;16066;0.000;0.000;2023-07-22T20:39:44;4.27;;;2.83;;
28958;SDS011;16066;0.000;0.000;2023-07-22T20:42:10;4.40;;;3.50;;
28958;SDS011;16066;0.000;0.000;2023-07-22T20:44:35;3.90;;;3.17;;
28958;SDS011;16066;0.000;0.000;2023-07-22T20:47:01;5.57;;;3.10;;
28958;SDS011;16066;0.000;0.000;2023-07-22T20:49:30;7.33;;;4.20;;